Time;durP1;ratioP1;P1;durP2;ratioP2;P2;SDS_P1;SDS_P2;PMS_P1;PMS_P2;Temp;Humidity;BMP_temperature;BMP_pressure;BME280_temperature;BME280_humidity;BME280_pressure;Samples;Min_cycle;Max_cycle;Signal;HPM_P1;HPM_P2
2022/03/10 00:00:15;;;;;;;33.80;18.63;;;;;;;;;;4916232;29;20032;-69
2022/03/10 00:02:45;;;;;;;35.17;18.50;;;;;;;;;;4915220;29;20036;-70
2022/03/10 00:05:13;;;;;;;31.23;17.27;;;;;;;;;;4917622;29;20040;-67
2022/03/10 00:07:39;;;;;;;29.13;17.00;;;;;;;;;;4917750;29;20038;-64
2022/03/10 00:10:05;;;;;;;32.88;16.55;;;;;;;;;;4918594;29;20032;-66
2022/03/10 00:12:31;;;;;;;34.33;17.85;;;;;;;;;;4917909;29;20095;-72
2022/03/10 00:14:57;;;;;;;29.75;17.23;;;;;;;;;;4904325;29;20431;-72
2022/03/10 00:17:23;;;;;;;30.20;17.10;;;;;;;;;;4898030;29;20036;-69
2022/03/10 00:19:48;;;;;;;28.10;16.65;;;;;;;;;;4906547;29;20484;-73
2022/03/10 00:22:14;;;;;;;28.63;15.30;;;;;;;;;;4910861;29;20042;-69
2022/03/10 00:24:41;;;;;;;30.23;16.33;;;;;;;;;;4917968;29;20135;-65
2022/03/10 00:27:07;;;;;;;30.45;16.88;;;;;;;;;;4917004;29;20037;-64
2022/03/10 00:29:33;;;;;;;27.00;15.27;;;;;;;;;;4918554;29;20107;-64
2022/03/10 00:31:59;;;;;;;29.20;16.77;;;;;;;;;;4918007;29;20563;-65
2022/03/10 00:34:25;;;;;;;30.33;15.98;;;;;;;;;;4917886;29;20404;-70
2022/03/10 00:36:50;;;;;;;29.38;15.98;;;;;;;;;;4915507;29;20031;-68
2022/03/10 00:39:16;;;;;;;33.75;15.65;;;;;;;;;;4899674;29;20484;-64
2022/03/10 00:41:42;;;;;;;29.48;16.20;;;;;;;;;;4908291;29;20032;-70
2022/03/10 00:44:08;;;;;;;30.15;15.68;;;;;;;;;;4918017;29;20127;-63
2022/03/10 00:46:33;;;;;;;29.42;16.17;;;;;;;;;;4917301;29;20059;-65
2022/03/10 00:48:59;;;;;;;29.90;16.75;;;;;;;;;;4918448;29;20043;-68
2022/03/10 00:51:25;;;;;;;29.25;16.45;;;;;;;;;;4916492;29;20024;-74
2022/03/10 00:53:51;;;;;;;29.58;15.77;;;;;;;;;;4907815;29;20035;-70
2022/03/10 00:56:17;;;;;;;30.90;17.20;;;;;;;;;;4911613;29;20040;-65
2022/03/10 00:58:42;;;;;;;28.17;16.15;;;;;;;;;;4915240;29;20044;-73
2022/03/10 01:01:10;;;;;;;27.08;16.38;;;;;;;;;;4917550;29;20399;-70
2022/03/10 01:03:36;;;;;;;28.38;15.60;;;;;;;;;;4912939;29;20067;-65
2022/03/10 01:06:02;;;;;;;29.77;15.57;;;;;;;;;;4908276;29;20100;-64
2022/03/10 01:08:27;;;;;;;27.13;15.30;;;;;;;;;;4906979;29;20069;-67
2022/03/10 01:10:53;;;;;;;26.63;14.55;;;;;;;;;;4916608;29;20036;-65
2022/03/10 01:13:19;;;;;;;27.60;16.02;;;;;;;;;;4903601;29;20043;-67
2022/03/10 01:15:46;;;;;;;27.50;15.23;;;;;;;;;;4912335;29;20095;-72
2022/03/10 01:18:16;;;;;;;24.35;14.88;;;;;;;;;;4903936;29;20036;-68
2022/03/10 01:20:42;;;;;;;26.35;14.52;;;;;;;;;;4915065;29;20031;-63
2022/03/10 01:23:12;;;;;;;23.98;14.20;;;;;;;;;;4905871;29;20499;-68
2022/03/10 01:25:38;;;;;;;21.92;12.90;;;;;;;;;;4913339;29;20051;-63
2022/03/10 01:28:05;;;;;;;23.42;13.80;;;;;;;;;;4917083;29;20028;-64
2022/03/10 01:30:31;;;;;;;25.45;14.52;;;;;;;;;;4916365;29;20099;-66
2022/03/10 01:32:57;;;;;;;24.67;14.10;;;;;;;;;;4916589;29;20028;-66
2022/03/10 01:35:24;;;;;;;23.23;13.85;;;;;;;;;;4916689;29;20064;-72
2022/03/10 01:37:49;;;;;;;25.10;13.82;;;;;;;;;;4916532;29;20107;-64
2022/03/10 01:40:17;;;;;;;23.73;14.05;;;;;;;;;;4916083;29;20131;-64
2022/03/10 01:42:43;;;;;;;22.90;13.80;;;;;;;;;;4916370;29;20036;-66
2022/03/10 01:45:11;;;;;;;24.50;14.13;;;;;;;;;;4915899;29;20040;-68
2022/03/10 01:47:37;;;;;;;25.48;14.88;;;;;;;;;;4916650;29;20504;-67
2022/03/10 01:50:05;;;;;;;21.88;12.65;;;;;;;;;;4917051;29;20388;-65
2022/03/10 01:52:31;;;;;;;22.95;13.15;;;;;;;;;;4915997;29;20024;-64
2022/03/10 01:54:57;;;;;;;23.20;13.60;;;;;;;;;;4907260;29;20136;-65
2022/03/10 01:57:24;;;;;;;22.40;13.48;;;;;;;;;;4911012;29;20044;-64
2022/03/10 01:59:52;;;;;;;22.23;13.20;;;;;;;;;;4916232;29;20476;-63
2022/03/10 02:02:17;;;;;;;23.50;13.23;;;;;;;;;;4914607;29;20047;-66
2022/03/10 02:04:43;;;;;;;33.80;13.40;;;;;;;;;;4909779;29;20032;-65
2022/03/10 02:10:16;;;;;;;24.27;13.68;;;;;;;;;;4908938;29;20032;-68
2022/03/10 02:12:40;;;;;;;22.20;12.98;;;;;;;;;;4907814;29;20105;-69
2022/03/10 02:18:02;;;;;;;30.50;14.98;;;;;;;;;;4901000;29;20388;-63
2022/03/10 02:20:28;;;;;;;23.73;13.43;;;;;;;;;;4913200;29;20028;-67
2022/03/10 02:22:54;;;;;;;23.08;13.32;;;;;;;;;;4915861;29;20533;-69
2022/03/10 02:25:22;;;;;;;23.95;13.32;;;;;;;;;;4915513;29;20032;-64
2022/03/10 02:27:50;;;;;;;22.92;13.60;;;;;;;;;;4916794;29;20040;-68
2022/03/10 02:30:16;;;;;;;22.08;12.95;;;;;;;;;;4904089;29;20091;-67
2022/03/10 02:32:42;;;;;;;22.67;13.00;;;;;;;;;;4898878;29;20543;-65
2022/03/10 02:35:08;;;;;;;21.58;12.75;;;;;;;;;;4916091;29;20463;-63
2022/03/10 02:37:34;;;;;;;25.30;13.15;;;;;;;;;;4915903;29;20055;-67
2022/03/10 02:40:00;;;;;;;24.63;13.60;;;;;;;;;;4913619;29;20234;-66
2022/03/10 02:42:30;;;;;;;22.52;13.10;;;;;;;;;;4914794;29;20040;-63
2022/03/10 02:44:56;;;;;;;19.95;11.13;;;;;;;;;;4897629;29;20101;-65
2022/03/10 02:47:21;;;;;;;22.45;12.00;;;;;;;;;;4897483;29;20032;-65
2022/03/10 02:49:47;;;;;;;19.15;11.70;;;;;;;;;;4896406;29;20036;-69
2022/03/10 02:52:13;;;;;;;19.98;12.15;;;;;;;;;;4915432;29;20032;-68
2022/03/10 02:54:39;;;;;;;22.40;13.02;;;;;;;;;;4914799;29;20039;-64
2022/03/10 02:57:05;;;;;;;21.55;12.68;;;;;;;;;;4905558;29;20552;-64
2022/03/10 02:59:31;;;;;;;18.45;11.60;;;;;;;;;;4910510;29;20350;-63
2022/03/10 03:01:58;;;;;;;21.85;12.52;;;;;;;;;;4903846;29;20050;-70
2022/03/10 03:04:24;;;;;;;21.50;11.00;;;;;;;;;;4905675;29;20472;-72
2022/03/10 03:06:50;;;;;;;17.65;10.85;;;;;;;;;;4904024;29;20115;-69
2022/03/10 03:09:16;;;;;;;20.95;10.80;;;;;;;;;;4904323;29;20458;-62
2022/03/10 03:11:42;;;;;;;21.25;11.30;;;;;;;;;;4904213;29;20506;-64
2022/03/10 03:14:08;;;;;;;16.38;10.32;;;;;;;;;;4904789;29;20032;-64
2022/03/10 03:16:34;;;;;;;20.13;12.23;;;;;;;;;;4906210;29;20464;-63
2022/03/10 03:19:00;;;;;;;20.08;11.80;;;;;;;;;;4906130;29;20048;-65
2022/03/10 03:21:25;;;;;;;20.73;12.18;;;;;;;;;;4909096;29;20032;-63
2022/03/10 03:23:51;;;;;;;19.60;10.55;;;;;;;;;;4905127;29;20044;-63
2022/03/10 03:26:17;;;;;;;19.95;10.65;;;;;;;;;;4905292;29;20067;-64
2022/03/10 03:28:43;;;;;;;19.73;11.45;;;;;;;;;;4909433;29;20036;-63
2022/03/10 03:31:11;;;;;;;18.13;9.88;;;;;;;;;;4904645;29;20081;-66
2022/03/10 03:33:38;;;;;;;18.95;10.48;;;;;;;;;;4904899;29;20400;-65
2022/03/10 03:36:04;;;;;;;15.55;9.50;;;;;;;;;;4914018;29;20043;-64
2022/03/10 03:38:30;;;;;;;18.63;10.05;;;;;;;;;;4909264;29;20028;-68
2022/03/10 03:40:56;;;;;;;16.85;10.35;;;;;;;;;;4905893;29;20038;-70
2022/03/10 03:43:22;;;;;;;16.35;9.93;;;;;;;;;;4908037;29;20032;-67
2022/03/10 03:45:47;;;;;;;16.90;10.75;;;;;;;;;;4912660;29;20036;-68
2022/03/10 03:48:13;;;;;;;20.02;10.43;;;;;;;;;;4910648;29;20488;-68
2022/03/10 03:50:39;;;;;;;19.65;9.82;;;;;;;;;;4915280;29;20035;-70
2022/03/10 03:53:05;;;;;;;15.98;10.10;;;;;;;;;;4910416;29;20740;-67
2022/03/10 03:55:30;;;;;;;17.08;10.45;;;;;;;;;;4904292;29;20535;-71
2022/03/10 03:57:56;;;;;;;16.67;10.00;;;;;;;;;;4908511;29;20040;-67
2022/03/10 04:00:22;;;;;;;18.33;10.52;;;;;;;;;;4913900;29;20040;-68
2022/03/10 04:02:48;;;;;;;18.30;10.15;;;;;;;;;;4913775;29;20483;-70
2022/03/10 04:05:14;;;;;;;15.35;8.93;;;;;;;;;;4915325;29;20028;-68
2022/03/10 04:07:40;;;;;;;16.10;9.90;;;;;;;;;;4905147;29;20137;-65
2022/03/10 04:10:08;;;;;;;15.88;9.27;;;;;;;;;;4909005;29;20107;-69
2022/03/10 04:12:34;;;;;;;15.45;9.77;;;;;;;;;;4898808;29;20032;-72
2022/03/10 04:15:00;;;;;;;18.00;9.75;;;;;;;;;;4907840;29;20063;-67
2022/03/10 04:17:27;;;;;;;21.67;11.40;;;;;;;;;;4896505;29;20044;-71
2022/03/10 04:19:52;;;;;;;19.52;10.40;;;;;;;;;;4908337;29;20055;-67
2022/03/10 04:22:19;;;;;;;20.92;10.80;;;;;;;;;;4911678;29;20047;-73
2022/03/10 04:24:45;;;;;;;17.02;9.80;;;;;;;;;;4913696;29;20337;-68
2022/03/10 04:27:11;;;;;;;19.17;10.10;;;;;;;;;;4906177;29;20103;-73
2022/03/10 04:29:37;;;;;;;20.17;10.38;;;;;;;;;;4903722;29;20115;-68
2022/03/10 04:32:03;;;;;;;19.63;10.90;;;;;;;;;;4909842;29;20119;-72
2022/03/10 04:34:29;;;;;;;17.60;10.57;;;;;;;;;;4913090;29;20510;-66
2022/03/10 04:36:55;;;;;;;16.83;9.63;;;;;;;;;;4913559;29;20138;-70
2022/03/10 04:39:21;;;;;;;14.95;9.35;;;;;;;;;;4918121;29;20043;-67
2022/03/10 04:41:47;;;;;;;13.48;8.20;;;;;;;;;;4904537;29;20488;-69
2022/03/10 04:44:13;;;;;;;15.98;9.05;;;;;;;;;;4904105;29;20024;-65
2022/03/10 04:46:38;;;;;;;16.23;10.07;;;;;;;;;;4918310;29;20099;-69
2022/03/10 04:49:05;;;;;;;16.25;9.85;;;;;;;;;;4916842;29;20032;-66
2022/03/10 04:51:31;;;;;;;21.50;10.35;;;;;;;;;;4919338;29;20387;-67
2022/03/10 04:53:57;;;;;;;19.35;10.73;;;;;;;;;;4917886;29;20098;-68
2022/03/10 04:56:23;;;;;;;16.48;10.23;;;;;;;;;;4907047;29;20036;-70
2022/03/10 04:58:48;;;;;;;18.90;10.98;;;;;;;;;;4904487;29;20052;-66
2022/03/10 05:01:14;;;;;;;30.30;12.90;;;;;;;;;;4905686;29;20365;-70
2022/03/10 05:03:40;;;;;;;26.33;12.52;;;;;;;;;;4913270;29;20054;-72
2022/03/10 05:06:07;;;;;;;35.63;14.88;;;;;;;;;;4909636;29;20076;-70
2022/03/10 05:08:33;;;;;;;22.40;12.10;;;;;;;;;;4917035;29;20071;-73
2022/03/10 05:10:59;;;;;;;25.42;13.02;;;;;;;;;;4916895;29;20487;-76
2022/03/10 05:13:25;;;;;;;22.55;12.48;;;;;;;;;;4917565;29;20035;-72
2022/03/10 05:15:51;;;;;;;18.77;10.73;;;;;;;;;;4914844;29;20054;-73
2022/03/10 05:18:16;;;;;;;17.98;10.38;;;;;;;;;;4917037;29;20539;-71
2022/03/10 05:20:42;;;;;;;22.35;11.77;;;;;;;;;;4911581;29;20510;-69
2022/03/10 05:23:08;;;;;;;17.67;10.32;;;;;;;;;;4929714;29;20383;-74
2022/03/10 05:25:38;;;;;;;19.33;10.95;;;;;;;;;;4918407;29;20032;-70
2022/03/10 05:28:07;;;;;;;19.48;10.50;;;;;;;;;;4916007;29;20032;-72
2022/03/10 05:30:33;;;;;;;26.02;12.88;;;;;;;;;;4917720;29;20028;-72
2022/03/10 05:33:00;;;;;;;29.60;11.88;;;;;;;;;;4910735;29;20039;-75
2022/03/10 05:35:29;;;;;;;32.38;12.77;;;;;;;;;;4915400;29;20060;-76
2022/03/10 05:37:56;;;;;;;18.17;10.52;;;;;;;;;;4906340;29;20075;-70
2022/03/10 05:40:22;;;;;;;22.45;11.43;;;;;;;;;;4917761;29;20060;-74
2022/03/10 05:42:51;;;;;;;26.00;11.30;;;;;;;;;;4916131;29;20044;-74
2022/03/10 05:45:20;;;;;;;19.15;10.70;;;;;;;;;;4918700;29;20028;-73
2022/03/10 05:47:51;;;;;;;17.55;9.95;;;;;;;;;;4915527;29;20067;-70
2022/03/10 05:50:18;;;;;;;16.15;9.98;;;;;;;;;;4916067;29;20480;-72
2022/03/10 05:52:45;;;;;;;17.52;10.73;;;;;;;;;;4907217;29;20040;-70
2022/03/10 05:55:15;;;;;;;18.23;10.32;;;;;;;;;;4915672;29;20036;-71
2022/03/10 05:57:42;;;;;;;18.33;10.07;;;;;;;;;;4914714;29;20058;-73
2022/03/10 06:00:10;;;;;;;17.02;9.30;;;;;;;;;;4916717;29;20048;-73
2022/03/10 06:02:38;;;;;;;14.65;9.27;;;;;;;;;;4916037;29;20399;-69
2022/03/10 06:05:05;;;;;;;17.88;10.02;;;;;;;;;;4916732;29;20044;-73
2022/03/10 06:07:31;;;;;;;16.02;9.73;;;;;;;;;;4915921;29;20372;-72
2022/03/10 06:09:57;;;;;;;19.27;9.70;;;;;;;;;;4912633;29;20035;-72
2022/03/10 06:12:24;;;;;;;19.35;9.88;;;;;;;;;;4905917;29;20419;-73
2022/03/10 06:14:57;;;;;;;28.10;10.38;;;;;;;;;;4906099;29;20132;-73
2022/03/10 06:17:23;;;;;;;16.65;9.50;;;;;;;;;;4896928;29;20395;-72
2022/03/10 06:19:49;;;;;;;25.88;12.90;;;;;;;;;;4896675;29;20066;-74
2022/03/10 06:22:27;;;;;;;18.60;10.85;;;;;;;;;;4915990;29;20032;-75
2022/03/10 06:24:52;;;;;;;18.80;11.23;;;;;;;;;;4896103;29;20100;-72
2022/03/10 06:27:22;;;;;;;17.52;11.10;;;;;;;;;;4896858;29;20024;-76
2022/03/10 06:29:49;;;;;;;21.45;10.80;;;;;;;;;;4916365;29;20040;-71
2022/03/10 06:32:19;;;;;;;22.30;11.30;;;;;;;;;;4916105;29;20020;-72
2022/03/10 06:34:46;;;;;;;16.77;10.48;;;;;;;;;;4916802;29;20036;-72
2022/03/10 06:37:12;;;;;;;18.25;9.95;;;;;;;;;;4909780;29;20380;-73
2022/03/10 06:39:39;;;;;;;25.80;11.13;;;;;;;;;;4908638;29;20036;-72
2022/03/10 06:42:05;;;;;;;32.30;12.75;;;;;;;;;;4901706;29;20040;-71
2022/03/10 06:44:32;;;;;;;30.95;13.00;;;;;;;;;;4909248;29;20047;-72
2022/03/10 06:46:58;;;;;;;39.17;14.70;;;;;;;;;;4915122;29;20040;-73
2022/03/10 06:49:23;;;;;;;33.15;11.70;;;;;;;;;;4905244;29;20032;-74
2022/03/10 06:51:49;;;;;;;29.35;10.57;;;;;;;;;;4895613;29;20499;-73
2022/03/10 06:54:17;;;;;;;25.00;10.68;;;;;;;;;;4911053;29;20480;-73
2022/03/10 06:56:44;;;;;;;21.00;9.43;;;;;;;;;;4915839;29;20046;-73
2022/03/10 06:59:10;;;;;;;23.70;11.07;;;;;;;;;;4914704;29;20506;-72
2022/03/10 07:01:36;;;;;;;19.63;10.23;;;;;;;;;;4914342;29;20036;-71
2022/03/10 07:04:01;;;;;;;18.85;10.52;;;;;;;;;;4915744;29;20028;-72
2022/03/10 07:06:27;;;;;;;17.65;11.40;;;;;;;;;;4912666;29;20491;-73
2022/03/10 07:08:53;;;;;;;20.23;11.02;;;;;;;;;;4913366;29;20063;-71
2022/03/10 07:11:19;;;;;;;19.80;11.40;;;;;;;;;;4913222;29;20032;-73
2022/03/10 07:13:46;;;;;;;19.98;10.80;;;;;;;;;;4903043;29;20032;-75
2022/03/10 07:16:12;;;;;;;22.52;10.68;;;;;;;;;;4905508;29;20039;-71
2022/03/10 07:18:38;;;;;;;15.75;9.77;;;;;;;;;;4901673;29;20033;-73
2022/03/10 07:21:04;;;;;;;16.50;9.82;;;;;;;;;;4909837;29;20031;-73
2022/03/10 07:23:31;;;;;;;19.20;9.52;;;;;;;;;;4907035;29;20549;-76
2022/03/10 07:25:57;;;;;;;19.83;9.90;;;;;;;;;;4908530;29;20032;-76
2022/03/10 07:28:23;;;;;;;18.25;10.10;;;;;;;;;;4898988;29;20128;-72
2022/03/10 07:30:49;;;;;;;14.88;8.77;;;;;;;;;;4905178;29;20036;-76
2022/03/10 07:33:15;;;;;;;11.50;7.40;;;;;;;;;;4908293;29;20059;-70
2022/03/10 07:35:41;;;;;;;11.70;7.85;;;;;;;;;;4906963;29;20043;-76
2022/03/10 07:38:07;;;;;;;23.15;10.07;;;;;;;;;;4900629;29;20040;-69
2022/03/10 07:40:32;;;;;;;14.13;8.38;;;;;;;;;;4911362;29;20025;-70
2022/03/10 07:42:58;;;;;;;18.25;8.80;;;;;;;;;;4903398;29;20048;-71
2022/03/10 07:45:25;;;;;;;12.30;7.90;;;;;;;;;;4905017;29;20033;-70
2022/03/10 07:47:52;;;;;;;13.68;8.20;;;;;;;;;;4910832;29;20134;-70
2022/03/10 07:50:18;;;;;;;14.85;7.85;;;;;;;;;;4913824;29;20056;-69
2022/03/10 07:52:44;;;;;;;18.73;10.02;;;;;;;;;;4907609;29;20051;-69
2022/03/10 07:55:13;;;;;;;13.65;8.80;;;;;;;;;;4901167;29;20028;-71
2022/03/10 07:57:40;;;;;;;20.05;9.20;;;;;;;;;;4903988;29;20052;-70
2022/03/10 08:00:07;;;;;;;12.52;8.30;;;;;;;;;;4909509;29;20076;-70
2022/03/10 08:02:37;;;;;;;13.07;8.13;;;;;;;;;;4913859;29;20052;-71
2022/03/10 08:05:04;;;;;;;18.23;10.38;;;;;;;;;;4913986;29;20021;-77
2022/03/10 08:07:32;;;;;;;10.05;7.03;;;;;;;;;;4914030;29;20119;-74
2022/03/10 08:10:00;;;;;;;14.05;7.40;;;;;;;;;;4915648;29;20029;-73
2022/03/10 08:12:29;;;;;;;12.65;8.35;;;;;;;;;;4915565;29;20514;-73
2022/03/10 08:14:55;;;;;;;12.90;8.70;;;;;;;;;;4918233;29;20040;-75
2022/03/10 08:17:21;;;;;;;11.90;8.60;;;;;;;;;;4918920;29;20040;-75
2022/03/10 08:19:47;;;;;;;14.15;7.65;;;;;;;;;;4919288;29;20039;-77
2022/03/10 08:22:15;;;;;;;16.42;7.70;;;;;;;;;;4918141;29;20036;-71
2022/03/10 08:24:42;;;;;;;11.63;7.45;;;;;;;;;;4916370;29;20066;-72
2022/03/10 08:27:08;;;;;;;22.55;8.70;;;;;;;;;;4904085;29;20033;-75
2022/03/10 08:29:34;;;;;;;16.60;9.15;;;;;;;;;;4909164;29;20033;-74
2022/03/10 08:32:00;;;;;;;17.27;7.90;;;;;;;;;;4914181;29;20040;-73
2022/03/10 08:34:26;;;;;;;10.85;7.40;;;;;;;;;;4917656;29;20040;-74
2022/03/10 08:36:52;;;;;;;11.60;7.93;;;;;;;;;;4917943;29;20055;-76
2022/03/10 08:39:18;;;;;;;10.80;7.25;;;;;;;;;;4918625;29;20028;-71
2022/03/10 08:41:44;;;;;;;12.15;7.13;;;;;;;;;;4913082;29;20036;-74
2022/03/10 08:44:12;;;;;;;18.83;7.65;;;;;;;;;;4909309;29;20090;-70
2022/03/10 08:46:39;;;;;;;15.43;7.75;;;;;;;;;;4904561;29;20432;-73
2022/03/10 08:49:05;;;;;;;14.00;7.75;;;;;;;;;;4914247;29;20122;-70
2022/03/10 08:51:31;;;;;;;15.93;7.43;;;;;;;;;;4904619;29;20040;-73
2022/03/10 08:53:57;;;;;;;10.75;7.22;;;;;;;;;;4912375;29;20565;-77
2022/03/10 08:56:23;;;;;;;13.32;7.47;;;;;;;;;;4912392;29;20119;-69
2022/03/10 08:58:49;;;;;;;12.00;8.00;;;;;;;;;;4908235;29;20072;-69
2022/03/10 09:01:14;;;;;;;12.10;7.63;;;;;;;;;;4909643;29;20387;-70
2022/03/10 09:03:40;;;;;;;10.60;6.80;;;;;;;;;;4906193;29;20041;-71
2022/03/10 09:06:07;;;;;;;11.55;6.90;;;;;;;;;;4897684;29;20040;-68
2022/03/10 09:08:33;;;;;;;10.98;7.57;;;;;;;;;;4898991;29;20054;-70
2022/03/10 09:10:59;;;;;;;10.00;6.88;;;;;;;;;;4901867;29;20148;-69
2022/03/10 09:13:25;;;;;;;11.55;7.47;;;;;;;;;;4899208;29;20499;-75
2022/03/10 09:15:51;;;;;;;12.23;7.18;;;;;;;;;;4898737;29;20039;-75
2022/03/10 09:18:17;;;;;;;14.30;7.90;;;;;;;;;;4901911;29;20357;-71
2022/03/10 09:20:43;;;;;;;12.70;7.50;;;;;;;;;;4917894;29;20048;-72
2022/03/10 09:23:09;;;;;;;11.52;7.25;;;;;;;;;;4912755;29;20029;-73
2022/03/10 09:25:35;;;;;;;11.85;7.20;;;;;;;;;;4899467;29;20116;-71
2022/03/10 09:28:00;;;;;;;13.68;8.10;;;;;;;;;;4908931;29;20123;-72
2022/03/10 09:30:26;;;;;;;14.90;8.07;;;;;;;;;;4902300;29;20045;-71
2022/03/10 09:32:52;;;;;;;15.05;8.40;;;;;;;;;;4897704;29;20330;-76
2022/03/10 09:35:21;;;;;;;16.00;7.93;;;;;;;;;;4898494;29;20108;-73
2022/03/10 09:37:47;;;;;;;14.35;8.45;;;;;;;;;;4900852;29;20126;-73
2022/03/10 09:40:13;;;;;;;14.38;7.53;;;;;;;;;;4910918;29;20044;-79
2022/03/10 09:42:39;;;;;;;13.23;7.70;;;;;;;;;;4908090;29;20037;-72
2022/03/10 09:45:09;;;;;;;13.95;8.07;;;;;;;;;;4903558;29;20044;-69
2022/03/10 09:47:39;;;;;;;13.68;8.30;;;;;;;;;;4897729;29;20454;-70
2022/03/10 09:50:10;;;;;;;10.07;6.85;;;;;;;;;;4898112;29;20083;-70
2022/03/10 09:52:36;;;;;;;13.93;8.18;;;;;;;;;;4907171;29;20032;-68
2022/03/10 09:55:04;;;;;;;14.85;8.85;;;;;;;;;;4898723;29;20076;-73
2022/03/10 09:57:29;;;;;;;14.38;8.13;;;;;;;;;;4902919;29;20043;-72
2022/03/10 09:59:59;;;;;;;16.60;8.02;;;;;;;;;;4916968;29;20040;-71
2022/03/10 10:02:27;;;;;;;12.18;7.55;;;;;;;;;;4916899;29;20038;-68
2022/03/10 10:04:53;;;;;;;15.13;8.43;;;;;;;;;;4917095;29;20024;-69
2022/03/10 10:07:28;;;;;;;12.85;7.53;;;;;;;;;;4917002;29;20036;-70
2022/03/10 10:09:56;;;;;;;11.55;7.50;;;;;;;;;;4905839;29;20048;-75
2022/03/10 10:12:30;;;;;;;11.18;7.40;;;;;;;;;;4912959;29;20036;-73
2022/03/10 10:14:58;;;;;;;15.32;8.15;;;;;;;;;;4902353;29;20069;-74
2022/03/10 10:17:29;;;;;;;11.73;7.60;;;;;;;;;;4907725;29;20043;-77
2022/03/10 10:19:57;;;;;;;18.33;8.07;;;;;;;;;;4911055;29;20111;-76
2022/03/10 10:22:24;;;;;;;12.45;7.53;;;;;;;;;;4915608;29;20020;-72
2022/03/10 10:24:52;;;;;;;11.18;6.93;;;;;;;;;;4909033;29;20511;-69
2022/03/10 10:27:21;;;;;;;10.23;7.03;;;;;;;;;;4898178;29;20452;-74
2022/03/10 10:29:53;;;;;;;10.85;6.95;;;;;;;;;;4898080;29;20055;-78
2022/03/10 10:32:34;;;;;;;12.60;7.68;;;;;;;;;;4905395;29;20480;-72
2022/03/10 10:35:12;;;;;;;10.88;7.55;;;;;;;;;;4912566;29;20062;-70
2022/03/10 10:37:42;;;;;;;13.20;7.53;;;;;;;;;;4914777;29;20029;-69
2022/03/10 10:40:09;;;;;;;11.82;8.38;;;;;;;;;;4915435;29;20029;-68
2022/03/10 10:42:38;;;;;;;12.88;8.35;;;;;;;;;;4906752;29;20024;-70
2022/03/10 10:45:28;;;;;;;13.73;8.98;;;;;;;;;;4913437;29;20067;-69
2022/03/10 10:48:12;;;;;;;14.77;8.07;;;;;;;;;;4908925;29;20108;-71
2022/03/10 10:50:41;;;;;;;14.18;7.38;;;;;;;;;;4915003;29;20036;-70
2022/03/10 10:53:08;;;;;;;12.35;8.27;;;;;;;;;;4911557;29;20024;-70
2022/03/10 10:55:39;;;;;;;16.92;8.48;;;;;;;;;;4905036;29;20060;-72
2022/03/10 10:58:09;;;;;;;13.40;8.45;;;;;;;;;;4909738;29;20048;-71
2022/03/10 11:00:46;;;;;;;11.52;7.57;;;;;;;;;;4899375;29;20039;-70
2022/03/10 11:03:26;;;;;;;13.50;7.88;;;;;;;;;;4902645;29;20080;-71
2022/03/10 11:05:54;;;;;;;10.20;6.95;;;;;;;;;;4904793;29;20544;-69
2022/03/10 11:08:21;;;;;;;10.30;7.00;;;;;;;;;;4912487;29;20028;-70
2022/03/10 11:10:48;;;;;;;12.05;7.40;;;;;;;;;;4896758;29;20131;-72
2022/03/10 11:13:13;;;;;;;14.45;7.50;;;;;;;;;;4895969;29;20021;-70
2022/03/10 11:15:42;;;;;;;11.32;6.95;;;;;;;;;;4896941;29;20029;-71
2022/03/10 11:18:10;;;;;;;11.07;6.55;;;;;;;;;;4897035;29;20210;-70
2022/03/10 11:20:44;;;;;;;12.68;7.93;;;;;;;;;;4896781;29;20037;-70
2022/03/10 11:23:28;;;;;;;11.60;7.82;;;;;;;;;;4895416;29;20048;-74
2022/03/10 11:26:32;;;;;;;15.85;7.88;;;;;;;;;;4910430;29;20032;-72
2022/03/10 11:28:59;;;;;;;13.00;7.10;;;;;;;;;;4914345;29;20335;-71
2022/03/10 11:31:26;;;;;;;12.63;7.85;;;;;;;;;;4915772;29;20087;-75
2022/03/10 11:33:52;;;;;;;15.20;8.73;;;;;;;;;;4915642;29;20032;-74
2022/03/10 11:36:24;;;;;;;21.90;9.20;;;;;;;;;;4915842;29;20134;-72
2022/03/10 11:38:55;;;;;;;16.45;7.35;;;;;;;;;;4915912;29;20040;-73
2022/03/10 11:41:50;;;;;;;12.68;7.28;;;;;;;;;;4915541;29;20032;-77
2022/03/10 11:44:36;;;;;;;10.23;6.90;;;;;;;;;;4910353;29;20052;-74
2022/03/10 11:47:14;;;;;;;13.20;7.65;;;;;;;;;;4914542;29;20052;-72
2022/03/10 11:49:40;;;;;;;10.27;6.72;;;;;;;;;;4915945;29;20029;-77
2022/03/10 11:52:21;;;;;;;11.45;7.03;;;;;;;;;;4915928;29;20040;-74
2022/03/10 11:55:13;;;;;;;11.95;7.68;;;;;;;;;;4903994;29;20459;-68
2022/03/10 11:57:54;;;;;;;14.38;7.88;;;;;;;;;;4908365;29;20414;-73
2022/03/10 12:00:44;;;;;;;15.85;7.63;;;;;;;;;;4896562;29;20448;-78
2022/03/10 12:03:27;;;;;;;12.38;7.68;;;;;;;;;;4895035;29;20037;-74
2022/03/10 12:06:03;;;;;;;15.25;7.88;;;;;;;;;;4897071;29;20037;-72
2022/03/10 12:08:30;;;;;;;9.80;8.25;;;;;;;;;;4907176;29;20543;-74
2022/03/10 12:10:58;;;;;;;12.73;7.05;;;;;;;;;;4915599;29;20110;-74
2022/03/10 12:13:38;;;;;;;10.55;6.63;;;;;;;;;;4915081;29;20036;-77
2022/03/10 12:16:06;;;;;;;10.95;8.55;;;;;;;;;;4914667;29;20080;-75
2022/03/10 12:18:44;;;;;;;11.93;6.35;;;;;;;;;;4914467;29;20047;-74
2022/03/10 12:21:21;;;;;;;10.57;6.38;;;;;;;;;;4913458;29;20044;-73
2022/03/10 12:24:02;;;;;;;9.98;5.68;;;;;;;;;;4915976;29;20033;-74
2022/03/10 12:26:31;;;;;;;9.82;5.20;;;;;;;;;;4913852;29;20484;-75
2022/03/10 12:29:04;;;;;;;9.63;5.95;;;;;;;;;;4913370;29;20058;-72
2022/03/10 12:31:35;;;;;;;8.45;5.10;;;;;;;;;;4899217;29;20136;-71
2022/03/10 12:34:06;;;;;;;9.13;5.82;;;;;;;;;;4899614;29;20037;-76
2022/03/10 12:36:38;;;;;;;9.15;5.40;;;;;;;;;;4901680;29;20495;-72
2022/03/10 12:39:13;;;;;;;9.57;4.73;;;;;;;;;;4912923;29;20032;-69
2022/03/10 12:41:45;;;;;;;7.88;5.10;;;;;;;;;;4915295;29;20047;-74
2022/03/10 12:44:13;;;;;;;8.40;4.83;;;;;;;;;;4914124;29;20476;-69
2022/03/10 12:46:41;;;;;;;8.20;4.95;;;;;;;;;;4914938;29;20701;-70
2022/03/10 12:49:17;;;;;;;8.10;5.03;;;;;;;;;;4914382;29;20104;-70
2022/03/10 12:51:43;;;;;;;8.65;4.95;;;;;;;;;;4915340;29;20402;-68
2022/03/10 12:54:09;;;;;;;10.27;5.18;;;;;;;;;;4905896;29;20032;-70
2022/03/10 12:56:47;;;;;;;6.10;3.92;;;;;;;;;;4914162;29;20166;-69
2022/03/10 12:59:15;;;;;;;6.68;4.07;;;;;;;;;;4913488;29;20032;-69
2022/03/10 13:01:41;;;;;;;13.07;6.50;;;;;;;;;;4916893;29;20317;-77
2022/03/10 13:04:13;;;;;;;9.15;5.72;;;;;;;;;;4916356;29;20428;-68
2022/03/10 13:06:40;;;;;;;8.88;5.82;;;;;;;;;;4899249;29;20114;-70
2022/03/10 13:09:07;;;;;;;10.52;5.80;;;;;;;;;;4914373;29;20028;-70
2022/03/10 13:11:36;;;;;;;8.93;5.70;;;;;;;;;;4918290;29;20066;-71
2022/03/10 13:14:10;;;;;;;9.20;6.10;;;;;;;;;;4914482;29;20424;-68
2022/03/10 13:16:41;;;;;;;6.60;4.93;;;;;;;;;;4918063;29;20071;-67
2022/03/10 13:19:26;;;;;;;10.73;6.35;;;;;;;;;;4917516;29;20040;-70
2022/03/10 13:21:56;;;;;;;11.45;6.68;;;;;;;;;;4917376;29;20516;-76
2022/03/10 13:24:46;;;;;;;14.90;8.15;;;;;;;;;;4914663;29;20047;-76
2022/03/10 13:27:16;;;;;;;12.48;7.40;;;;;;;;;;4906748;29;20032;-75
2022/03/10 13:29:52;;;;;;;13.05;6.45;;;;;;;;;;4919500;29;20036;-74
2022/03/10 13:32:22;;;;;;;7.63;4.47;;;;;;;;;;4934293;29;20091;-68
2022/03/10 13:34:50;;;;;;;10.43;6.90;;;;;;;;;;4935323;29;20471;-68
2022/03/10 13:37:17;;;;;;;9.90;6.80;;;;;;;;;;4901646;29;20055;-70
2022/03/10 13:39:45;;;;;;;9.35;4.30;;;;;;;;;;4899293;29;20085;-72
2022/03/10 13:42:18;;;;;;;6.43;3.88;;;;;;;;;;4898220;29;20047;-68
2022/03/10 13:44:44;;;;;;;8.52;5.15;;;;;;;;;;4903630;29;20629;-70
2022/03/10 13:47:10;;;;;;;8.55;5.22;;;;;;;;;;4918294;29;20063;-69
2022/03/10 13:49:48;;;;;;;7.43;4.68;;;;;;;;;;4917272;29;20040;-72
2022/03/10 13:52:16;;;;;;;6.60;4.35;;;;;;;;;;4903790;29;20075;-68
2022/03/10 13:54:52;;;;;;;9.35;5.65;;;;;;;;;;4911046;29;20023;-75
2022/03/10 13:57:19;;;;;;;7.22;4.70;;;;;;;;;;4912932;29;20040;-74
2022/03/10 13:59:45;;;;;;;9.85;5.18;;;;;;;;;;4914849;29;20396;-73
2022/03/10 14:02:38;;;;;;;14.50;6.63;;;;;;;;;;4910270;29;20176;-76
2022/03/10 14:05:12;;;;;;;9.15;5.30;;;;;;;;;;4913827;29;20044;-73
2022/03/10 14:07:38;;;;;;;21.55;9.10;;;;;;;;;;4915518;29;20059;-69
2022/03/10 14:10:06;;;;;;;12.68;7.10;;;;;;;;;;4910142;29;20029;-77
2022/03/10 14:12:32;;;;;;;13.82;6.95;;;;;;;;;;4897755;29;20084;-75
2022/03/10 14:14:58;;;;;;;11.68;6.63;;;;;;;;;;4897286;29;20040;-76
2022/03/10 14:17:41;;;;;;;10.23;6.75;;;;;;;;;;4897993;29;20044;-78
2022/03/10 14:20:07;;;;;;;16.48;7.28;;;;;;;;;;4898055;29;20072;-77
2022/03/10 14:22:34;;;;;;;14.40;8.02;;;;;;;;;;4897394;29;20028;-76
2022/03/10 14:25:01;;;;;;;8.85;6.13;;;;;;;;;;4900880;29;20040;-74
2022/03/10 14:27:27;;;;;;;9.43;5.80;;;;;;;;;;4900451;29;20132;-74
2022/03/10 14:29:56;;;;;;;10.10;6.05;;;;;;;;;;4896455;29;20051;-78
2022/03/10 14:32:23;;;;;;;10.07;5.25;;;;;;;;;;4895937;29;20033;-74
2022/03/10 14:34:49;;;;;;;8.35;5.68;;;;;;;;;;4898852;29;20043;-76
2022/03/10 14:37:15;;;;;;;7.53;4.95;;;;;;;;;;4914318;29;20306;-78